createdAt,value
2022-12-28T00:01:49.533Z,98164.94
2022-12-28T00:04:16.042Z,98167.94
2022-12-28T00:06:42.348Z,98154.16
2022-12-28T00:09:08.657Z,98148.63
2022-12-28T00:11:34.965Z,98150.03
2022-12-28T00:14:01.298Z,98153.28
2022-12-28T00:16:27.687Z,98141.34
2022-12-28T00:18:54.325Z,98135.81
2022-12-28T00:21:20.577Z,98131.00
2022-12-28T00:23:46.853Z,98133.22
2022-12-28T00:26:13.380Z,98130.91
2022-12-28T00:28:39.676Z,98116.28
2022-12-28T00:31:06.019Z,98115.00
2022-12-28T00:33:32.313Z,98108.97
2022-12-28T00:35:58.739Z,98103.19
2022-12-28T00:38:25.036Z,98092.06
2022-12-28T00:40:51.538Z,98101.75
2022-12-28T00:43:17.801Z,98101.88
2022-12-28T00:45:44.117Z,98102.75
2022-12-28T00:48:10.376Z,98091.41
2022-12-28T00:50:36.772Z,98104.00
2022-12-28T00:53:03.194Z,98086.25
2022-12-28T00:55:29.494Z,98084.72
2022-12-28T00:57:55.762Z,98074.19
2022-12-28T01:00:22.047Z,98064.44
2022-12-28T01:02:48.597Z,98060.03
2022-12-28T01:05:14.902Z,98053.19
2022-12-28T01:07:41.216Z,98049.78
2022-12-28T01:10:07.456Z,98035.56
2022-12-28T01:12:38.083Z,98031.38
2022-12-28T01:15:04.800Z,98026.34
2022-12-28T01:17:31.158Z,98030.47
2022-12-28T01:19:57.434Z,98013.84
2022-12-28T01:22:23.843Z,98018.19
2022-12-28T01:24:50.298Z,98005.78
2022-12-28T01:27:16.618Z,98005.88
2022-12-28T01:29:42.868Z,97997.78
2022-12-28T01:32:09.208Z,97993.13
2022-12-28T01:34:35.453Z,98003.78
2022-12-28T01:37:01.719Z,97969.34
2022-12-28T01:39:27.976Z,97993.34
2022-12-28T01:41:55.086Z,97957.84
2022-12-28T01:44:21.359Z,97987.69
2022-12-28T01:46:47.581Z,97949.59
2022-12-28T01:49:13.884Z,97958.44
2022-12-28T01:51:40.258Z,97937.06
2022-12-28T01:54:06.725Z,97936.09
2022-12-28T01:56:33.034Z,97944.72
2022-12-28T01:58:59.345Z,97946.41
2022-12-28T02:01:25.774Z,97947.06
2022-12-28T02:03:52.137Z,97922.25
2022-12-28T02:06:18.384Z,97927.38
2022-12-28T02:08:44.622Z,97928.03
2022-12-28T02:11:10.919Z,97926.84
2022-12-28T02:13:37.198Z,97929.34
2022-12-28T02:16:03.444Z,97920.22
2022-12-28T02:18:29.708Z,97907.59
2022-12-28T02:20:56.389Z,97898.44
2022-12-28T02:23:22.794Z,97894.84
2022-12-28T02:25:49.062Z,97898.13
2022-12-28T02:28:15.531Z,97884.28
2022-12-28T02:30:41.839Z,97890.81
2022-12-28T02:33:08.219Z,97910.81
2022-12-28T02:35:34.516Z,97899.03
2022-12-28T02:38:00.790Z,97885.41
2022-12-28T02:40:27.036Z,97890.13
2022-12-28T02:42:53.336Z,97886.28
2022-12-28T02:45:19.737Z,97878.97
2022-12-28T02:47:46.080Z,97875.75
2022-12-28T02:50:12.344Z,97877.78
2022-12-28T02:52:38.707Z,97861.50
2022-12-28T02:55:06.268Z,97883.16
2022-12-28T02:57:32.665Z,97901.88
2022-12-28T02:59:58.967Z,97867.88
2022-12-28T03:02:25.438Z,97870.97
2022-12-28T03:04:54.668Z,97892.59
2022-12-28T03:07:20.959Z,97858.16
2022-12-28T03:09:47.275Z,97870.19
2022-12-28T03:12:15.702Z,97872.47
2022-12-28T03:14:42.100Z,97877.16
2022-12-28T03:17:08.454Z,97887.38
2022-12-28T03:19:34.877Z,97882.50
2022-12-28T03:22:01.312Z,97860.72
2022-12-28T03:24:27.783Z,97846.28
2022-12-28T03:26:54.058Z,97837.75
2022-12-28T03:29:20.296Z,97851.19
2022-12-28T03:31:46.630Z,97835.75
2022-12-28T03:34:12.871Z,97845.53
2022-12-28T03:36:39.243Z,97852.84
2022-12-28T03:39:05.688Z,97830.91
2022-12-28T03:41:32.046Z,97825.22
2022-12-28T03:43:58.732Z,97816.69
2022-12-28T03:46:25.045Z,97812.59
2022-12-28T03:48:51.341Z,97813.84
2022-12-28T03:51:17.625Z,97789.44
2022-12-28T03:53:43.885Z,97797.59
2022-12-28T03:56:10.097Z,97796.19
2022-12-28T03:58:36.430Z,97790.28
2022-12-28T04:01:02.974Z,97778.09
2022-12-28T04:03:29.415Z,97781.97
2022-12-28T04:05:55.685Z,97770.81
2022-12-28T04:08:21.970Z,97761.44
2022-12-28T04:10:48.303Z,97771.22
2022-12-28T04:13:14.572Z,97773.25
2022-12-28T04:15:41.970Z,97757.59
2022-12-28T04:18:08.348Z,97750.91
2022-12-28T04:20:34.651Z,97752.75
2022-12-28T04:23:00.952Z,97747.88
2022-12-28T04:25:27.218Z,97732.22
2022-12-28T04:27:53.491Z,97722.88
2022-12-28T04:30:19.722Z,97738.13
2022-12-28T04:32:46.159Z,97718.03
2022-12-28T04:35:12.489Z,97730.66
2022-12-28T04:37:38.724Z,97736.16
2022-12-28T04:40:05.256Z,97710.91
2022-12-28T04:42:31.581Z,97707.66
2022-12-28T04:44:57.862Z,97697.28
2022-12-28T04:47:24.199Z,97693.03
2022-12-28T04:49:50.502Z,97683.47
2022-12-28T04:52:17.000Z,97681.03
2022-12-28T04:54:43.274Z,97668.03
2022-12-28T04:57:09.632Z,97686.75
2022-12-28T04:59:35.927Z,97681.47
2022-12-28T05:02:02.533Z,97658.91
2022-12-28T05:04:28.930Z,97653.03
2022-12-28T05:06:55.199Z,97645.28
2022-12-28T05:09:21.472Z,97656.31
2022-12-28T05:11:47.761Z,97646.78
2022-12-28T05:14:14.221Z,97651.47
2022-12-28T05:16:40.629Z,97648.22
2022-12-28T05:19:07.061Z,97653.50
2022-12-28T05:21:34.092Z,97656.34
2022-12-28T05:24:00.374Z,97656.56
2022-12-28T05:26:26.741Z,97645.41
2022-12-28T05:28:53.122Z,97648.25
2022-12-28T05:31:19.526Z,97650.09
2022-12-28T05:33:45.903Z,97666.38
2022-12-28T05:36:12.368Z,97643.59
2022-12-28T05:38:38.899Z,97651.53
2022-12-28T05:41:05.176Z,97659.69
2022-12-28T05:43:31.424Z,97651.97
2022-12-28T05:46:00.638Z,97637.34
2022-12-28T05:48:26.947Z,97651.56
2022-12-28T05:50:56.879Z,97642.03
2022-12-28T05:53:23.380Z,97651.78
2022-12-28T05:55:49.650Z,97671.50
2022-12-28T05:58:15.923Z,97658.28
2022-12-28T06:00:42.298Z,97638.19
2022-12-28T06:03:09.022Z,97636.78
2022-12-28T06:05:35.413Z,97623.78
2022-12-28T06:08:01.933Z,97609.78
2022-12-28T06:10:28.169Z,97617.09
2022-12-28T06:12:57.839Z,97611.81
2022-12-28T06:15:24.139Z,97608.56
2022-12-28T06:17:50.419Z,97613.84
2022-12-28T06:20:16.795Z,97605.31
2022-12-28T06:22:43.088Z,97614.28
2022-12-28T06:25:09.550Z,97651.50
2022-12-28T06:27:35.838Z,97612.88
2022-12-28T06:30:02.528Z,97601.47
2022-12-28T06:32:28.781Z,97603.34
2022-12-28T06:34:55.045Z,97589.53
2022-12-28T06:37:21.388Z,97615.13
2022-12-28T06:39:47.662Z,97601.09
2022-12-28T06:42:14.177Z,97609.22
2022-12-28T06:44:44.600Z,97597.88
2022-12-28T06:47:11.287Z,97582.22
2022-12-28T06:49:37.625Z,97586.72
2022-12-28T06:52:03.933Z,97584.28
2022-12-28T06:54:30.220Z,97584.28
2022-12-28T06:56:56.441Z,97595.63
2022-12-28T06:59:22.844Z,97590.56
2022-12-28T07:01:49.269Z,97575.75
2022-12-28T07:04:15.577Z,97590.78
2022-12-28T07:06:41.917Z,97580.44
2022-12-28T07:09:08.271Z,97592.81
2022-12-28T07:11:34.553Z,97584.09
2022-12-28T07:14:00.824Z,97573.72
2022-12-28T07:16:27.199Z,97576.38
2022-12-28T07:18:53.572Z,97574.78
2022-12-28T07:21:19.844Z,97577.41
2022-12-28T07:23:46.133Z,97580.66
2022-12-28T07:26:12.558Z,97586.16
2022-12-28T07:28:39.090Z,97578.69
2022-12-28T07:31:05.447Z,97586.56
2022-12-28T07:33:32.011Z,97582.63
2022-12-28T07:35:58.425Z,97583.31
2022-12-28T07:38:24.698Z,97595.25
2022-12-28T07:40:50.987Z,97585.69
2022-12-28T07:43:17.305Z,97578.97
2022-12-28T07:45:43.644Z,97575.09
2022-12-28T07:48:13.022Z,97583.47
2022-12-28T07:50:39.668Z,97579.16
2022-12-28T07:53:06.053Z,97574.13
2022-12-28T07:55:32.323Z,97576.31
2022-12-28T07:57:58.573Z,97571.53
2022-12-28T08:00:26.146Z,97574.16
2022-12-28T08:02:52.489Z,97578.81
2022-12-28T08:05:18.790Z,97581.22
2022-12-28T08:07:45.123Z,97576.63
2022-12-28T08:10:11.439Z,97574.47
2022-12-28T08:12:37.739Z,97571.69
2022-12-28T08:15:04.047Z,97573.44
2022-12-28T08:17:30.346Z,97578.56
2022-12-28T08:19:56.619Z,97573.47
2022-12-28T08:22:22.903Z,97566.19
2022-12-28T08:24:49.211Z,97575.41
2022-12-28T08:27:15.505Z,97569.41
2022-12-28T08:29:42.596Z,97582.38
2022-12-28T08:32:09.019Z,97571.28
2022-12-28T08:34:35.373Z,97576.28
2022-12-28T08:37:01.670Z,97574.03
2022-12-28T08:39:27.958Z,97584.56
2022-12-28T08:41:54.405Z,97569.22
2022-12-28T08:44:20.746Z,97564.81
2022-12-28T08:46:47.377Z,97577.47
2022-12-28T08:49:13.884Z,97558.34
2022-12-28T08:51:42.387Z,97566.72
2022-12-28T08:54:11.881Z,97573.41
2022-12-28T08:56:38.153Z,97558.44
2022-12-28T08:59:04.391Z,97561.13
2022-12-28T09:01:32.774Z,97555.78
2022-12-28T09:04:01.277Z,97558.16
2022-12-28T09:06:27.657Z,97560.50
2022-12-28T09:09:05.557Z,97568.22
2022-12-28T09:11:33.328Z,97555.66
2022-12-28T09:13:59.655Z,97556.38
2022-12-28T09:16:25.996Z,97558.75
2022-12-28T09:18:52.363Z,97550.44
2022-12-28T09:21:18.651Z,97541.06
2022-12-28T09:23:44.903Z,97542.38
2022-12-28T09:26:11.130Z,97540.19
2022-12-28T09:28:37.391Z,97547.59
2022-12-28T09:31:03.777Z,97540.91
2022-12-28T09:33:30.180Z,97539.28
2022-12-28T09:35:56.511Z,97539.78
2022-12-28T09:38:22.769Z,97529.63
2022-12-28T09:40:49.111Z,97530.38
2022-12-28T09:43:15.575Z,97531.13
2022-12-28T09:45:41.859Z,97543.09
2022-12-28T09:48:08.735Z,97535.84
2022-12-28T09:50:35.115Z,97536.34
2022-12-28T09:53:01.488Z,97536.03
2022-12-28T09:55:27.781Z,97532.00
2022-12-28T09:57:54.051Z,97525.34
2022-12-28T10:00:20.367Z,97522.34
2022-12-28T10:02:46.802Z,97517.50
2022-12-28T10:05:13.411Z,97510.81
2022-12-28T10:07:39.687Z,97520.09
2022-12-28T10:10:06.143Z,97512.63
2022-12-28T10:12:32.529Z,97505.13
2022-12-28T10:14:58.771Z,97510.94
2022-12-28T10:17:25.124Z,97508.50
2022-12-28T10:19:51.469Z,97506.09
2022-12-28T10:22:17.756Z,97501.03
2022-12-28T10:24:44.009Z,97496.75
2022-12-28T10:27:10.751Z,97492.47
2022-12-28T10:29:36.975Z,97494.56
2022-12-28T10:32:03.300Z,97491.13
2022-12-28T10:34:35.803Z,97497.72
2022-12-28T10:37:02.086Z,97488.91
2022-12-28T10:39:29.065Z,97484.66
2022-12-28T10:41:55.492Z,97489.16
2022-12-28T10:47:08.397Z,97474.81
2022-12-28T10:49:34.918Z,97478.06
2022-12-28T10:52:01.268Z,97478.06
2022-12-28T10:54:30.610Z,97474.06
2022-12-28T10:57:13.838Z,97471.41
2022-12-28T10:59:40.663Z,97466.66
2022-12-28T11:02:07.718Z,97464.81
2022-12-28T11:03:20.924Z,97481.16
2022-12-28T11:04:34.087Z,97465.59
2022-12-28T11:07:00.495Z,97465.59
2022-12-28T11:09:26.979Z,97451.22
2022-12-28T11:11:53.476Z,97454.44
2022-12-28T11:14:19.842Z,97459.78
2022-12-28T11:16:46.219Z,97450.97
2022-12-28T11:19:12.962Z,97455.22
2022-12-28T11:21:39.277Z,97447.50
2022-12-28T11:24:06.261Z,97440.56
2022-12-28T11:26:32.580Z,97444.28
2022-12-28T11:28:58.832Z,97447.19
2022-12-28T11:31:25.212Z,97443.97
2022-12-28T11:33:51.678Z,97437.59
2022-12-28T11:36:17.952Z,97431.47
2022-12-28T11:38:44.220Z,97441.56
2022-12-28T11:41:10.819Z,97448.75
2022-12-28T11:43:37.072Z,97450.63
2022-12-28T11:46:03.388Z,97438.31
2022-12-28T11:48:29.650Z,97424.97
2022-12-28T11:50:57.065Z,97437.50
2022-12-28T11:53:23.369Z,97427.66
2022-12-28T11:55:49.639Z,97429.31
2022-12-28T11:58:15.958Z,97427.44
2022-12-28T12:00:42.184Z,97432.53
2022-12-28T12:03:08.666Z,97425.09
2022-12-28T12:05:35.064Z,97428.06
2022-12-28T12:08:01.336Z,97425.69
2022-12-28T12:10:27.608Z,97421.72
2022-12-28T12:12:54.048Z,97419.38
2022-12-28T12:15:20.454Z,97411.94
2022-12-28T12:17:46.727Z,97405.28
2022-12-28T12:20:13.222Z,97406.66
2022-12-28T12:22:39.543Z,97407.22
2022-12-28T12:25:06.023Z,97412.84
2022-12-28T12:27:32.446Z,97398.19
2022-12-28T12:29:58.757Z,97399.81
2022-12-28T12:32:25.067Z,97409.97
2022-12-28T12:34:54.467Z,97398.28
2022-12-28T12:37:20.786Z,97402.28
2022-12-28T12:39:47.088Z,97402.03
2022-12-28T12:42:13.373Z,97400.97
2022-12-28T12:44:39.655Z,97399.66
2022-12-28T12:47:06.435Z,97392.47
2022-12-28T12:49:32.800Z,97398.63
2022-12-28T12:51:59.109Z,97389.81
2022-12-28T12:54:25.520Z,97393.03
2022-12-28T12:56:51.789Z,97385.81
2022-12-28T12:59:18.373Z,97392.53
2022-12-28T13:01:44.842Z,97387.19
2022-12-28T13:04:11.181Z,97380.78
2022-12-28T13:06:37.510Z,97378.13
2022-12-28T13:09:05.920Z,97379.75
2022-12-28T13:11:32.913Z,97378.69
2022-12-28T13:13:59.187Z,97368.81
2022-12-28T13:16:25.476Z,97364.31
2022-12-28T13:18:51.800Z,97360.31
2022-12-28T13:21:18.130Z,97359.28
2022-12-28T13:23:44.469Z,97352.06
2022-12-28T13:26:11.078Z,97358.19
2022-12-28T13:28:37.437Z,97360.88
2022-12-28T13:31:03.755Z,97349.38
2022-12-28T13:33:30.047Z,97344.06
2022-12-28T13:35:56.503Z,97355.78
2022-12-28T13:38:22.791Z,97355.78
2022-12-28T13:40:49.113Z,97355.22
2022-12-28T13:43:16.064Z,97352.56
2022-12-28T13:45:47.629Z,97352.03
2022-12-28T13:48:15.611Z,97350.41
2022-12-28T13:50:42.357Z,97346.94
2022-12-28T13:53:08.639Z,97353.34
2022-12-28T13:55:47.582Z,97355.19
2022-12-28T13:58:18.180Z,97350.94
2022-12-28T14:00:49.092Z,97341.56
2022-12-28T14:03:15.466Z,97355.72
2022-12-28T14:05:41.757Z,97354.09
2022-12-28T14:08:11.222Z,97350.38
2022-12-28T14:10:38.143Z,97353.59
2022-12-28T14:13:04.399Z,97357.88
2022-12-28T14:15:34.523Z,97354.69
2022-12-28T14:18:07.767Z,97355.22
2022-12-28T14:20:34.097Z,97355.78
2022-12-28T14:23:00.385Z,97364.59
2022-12-28T14:25:27.484Z,97358.19
2022-12-28T14:27:56.988Z,97363.53
2022-12-28T14:33:24.805Z,97352.59
2022-12-28T14:35:51.604Z,97355.28
2022-12-28T14:38:17.835Z,97349.94
2022-12-28T14:40:44.154Z,97341.94
2022-12-28T14:43:11.117Z,97345.41
2022-12-28T14:48:23.915Z,97341.94
2022-12-28T14:50:51.362Z,97342.75
2022-12-28T14:53:18.287Z,97339.28
2022-12-28T14:55:44.779Z,97341.94
2022-12-28T14:58:11.264Z,97344.63
2022-12-28T15:00:37.743Z,97350.75
2022-12-28T15:03:04.130Z,97338.50
2022-12-28T15:05:30.492Z,97344.88
2022-12-28T15:07:57.071Z,97339.53
2022-12-28T15:10:23.548Z,97328.31
2022-12-28T15:12:49.822Z,97336.06
2022-12-28T15:15:16.205Z,97336.06
2022-12-28T15:17:42.717Z,97336.06
2022-12-28T15:20:09.250Z,97338.72
2022-12-28T15:22:36.080Z,97332.34
2022-12-28T15:25:02.446Z,97327.84
2022-12-28T15:27:29.093Z,97328.63
2022-12-28T15:30:05.626Z,97325.16
2022-12-28T15:32:32.813Z,97337.44
2022-12-28T15:34:59.263Z,97325.94
2022-12-28T15:37:25.737Z,97337.97
2022-12-28T15:39:52.225Z,97324.66
2022-12-28T15:42:18.532Z,97320.91
2022-12-28T15:44:44.784Z,97324.38
2022-12-28T15:47:11.198Z,97322.53
2022-12-28T15:49:37.617Z,97321.72
2022-12-28T15:52:03.917Z,97329.72
2022-12-28T15:54:30.264Z,97313.72
2022-12-28T15:56:56.549Z,97302.00
2022-12-28T15:59:22.827Z,97294.81
2022-12-28T16:01:49.309Z,97285.22
2022-12-28T16:04:16.063Z,97296.91
2022-12-28T16:06:44.965Z,97283.84
2022-12-28T16:09:11.689Z,97292.91
2022-12-28T16:11:38.078Z,97284.09
2022-12-28T16:14:04.556Z,97269.41
2022-12-28T16:16:30.898Z,97269.41
2022-12-28T16:18:57.233Z,97281.16
2022-12-28T16:21:23.724Z,97276.88
2022-12-28T16:23:50.198Z,97264.88
2022-12-28T16:26:16.581Z,97270.44
2022-12-28T16:28:43.226Z,97258.44
2022-12-28T16:31:09.566Z,97240.03
2022-12-28T16:33:35.949Z,97198.47
2022-12-28T16:36:02.393Z,97202.16
2022-12-28T16:38:28.756Z,97210.16
2022-12-28T16:40:55.092Z,97206.44
2022-12-28T16:43:21.374Z,97201.38
2022-12-28T16:45:47.686Z,97202.16
2022-12-28T16:48:14.024Z,97204.03
2022-12-28T16:50:40.340Z,97215.50
2022-12-28T16:53:06.677Z,97208.56
2022-12-28T16:55:32.949Z,97198.16
2022-12-28T16:57:59.223Z,97200.03
2022-12-28T17:00:25.593Z,97214.41
2022-12-28T17:02:52.042Z,97212.78
2022-12-28T17:05:18.352Z,97213.59
2022-12-28T17:07:44.648Z,97211.97
2022-12-28T17:10:10.942Z,97208.28
2022-12-28T17:12:37.325Z,97197.63
2022-12-28T17:15:05.479Z,97197.63
2022-12-28T17:17:31.865Z,97192.03
2022-12-28T17:19:58.141Z,97188.81
2022-12-28T17:22:24.437Z,97185.34
2022-12-28T17:24:50.723Z,97174.69
2022-12-28T17:27:19.316Z,97183.47
2022-12-28T17:29:45.869Z,97180.56
2022-12-28T17:32:12.204Z,97166.44
2022-12-28T17:34:38.643Z,97162.72
2022-12-28T17:37:05.063Z,97175.78
2022-12-28T17:39:37.523Z,97162.44
2022-12-28T17:42:06.490Z,97169.63
2022-12-28T17:44:32.948Z,97161.63
2022-12-28T17:46:59.219Z,97160.59
2022-12-28T17:49:25.527Z,97160.59
2022-12-28T17:51:51.856Z,97159.22
2022-12-28T17:54:18.143Z,97166.44
2022-12-28T17:56:44.462Z,97155.78
2022-12-28T17:59:13.984Z,97154.16
2022-12-28T18:01:40.487Z,97149.91
2022-12-28T18:04:07.260Z,97148.28
2022-12-28T18:06:33.794Z,97141.38
2022-12-28T18:09:00.049Z,97137.88
2022-12-28T18:11:26.578Z,97139.22
2022-12-28T18:13:52.870Z,97127.75
2022-12-28T18:16:19.677Z,97134.94
2022-12-28T18:18:46.269Z,97124.53
2022-12-28T18:21:17.899Z,97114.16
2022-12-28T18:23:47.353Z,97110.66
2022-12-28T18:26:13.661Z,97099.22
2022-12-28T18:28:40.009Z,97112.56
2022-12-28T18:31:06.355Z,97095.50
2022-12-28T18:33:32.697Z,97087.22
2022-12-28T18:35:59.163Z,97087.22
2022-12-28T18:38:25.510Z,97093.38
2022-12-28T18:40:51.781Z,97077.38
2022-12-28T18:43:18.233Z,97090.72
2022-12-28T18:45:44.572Z,97094.19
2022-12-28T18:48:10.858Z,97084.31
2022-12-28T18:50:37.319Z,97080.59
2022-12-28T18:53:03.877Z,97076.84
2022-12-28T18:55:30.189Z,97057.41
2022-12-28T18:57:56.439Z,97064.59
2022-12-28T19:00:22.702Z,97057.41
2022-12-28T19:02:49.122Z,97060.06
2022-12-28T19:05:15.601Z,97049.41
2022-12-28T19:07:48.881Z,97050.22
2022-12-28T19:10:15.673Z,97047.28
2022-12-28T19:12:41.923Z,97037.69
2022-12-28T19:15:08.262Z,97042.22
2022-12-28T19:17:34.620Z,97036.88
2022-12-28T19:20:01.011Z,97032.38
2022-12-28T19:22:27.355Z,97032.63
2022-12-28T19:24:53.631Z,97019.31
2022-12-28T19:27:20.114Z,97015.03
2022-12-28T19:29:46.384Z,97000.13
2022-12-28T19:32:12.645Z,96995.06
2022-12-28T19:34:38.983Z,96999.56
2022-12-28T19:37:05.292Z,96983.84
2022-12-28T19:39:31.552Z,96980.38
2022-12-28T19:41:57.894Z,96982.50
2022-12-28T19:44:24.154Z,96980.91
2022-12-28T19:46:50.571Z,96972.38
2022-12-28T19:49:16.942Z,96975.28
2022-12-28T19:51:43.539Z,96968.34
2022-12-28T19:54:09.851Z,96967.56
2022-12-28T19:56:36.173Z,96953.19
2022-12-28T19:59:06.484Z,96959.84
2022-12-28T20:01:34.684Z,96947.84
2022-12-28T20:04:02.814Z,96953.72
2022-12-28T20:06:30.895Z,96952.41
2022-12-28T20:08:57.187Z,96943.09
2022-12-28T20:11:23.613Z,96948.16
2022-12-28T20:13:49.968Z,96938.84
2022-12-28T20:16:16.361Z,96937.75
2022-12-28T20:18:42.846Z,96934.06
2022-12-28T20:21:24.612Z,96940.16
2022-12-28T20:23:51.029Z,96933.78
2022-12-28T20:26:17.430Z,96933.53
2022-12-28T20:28:43.711Z,96925.25
2022-12-28T20:31:10.212Z,96922.84
2022-12-28T20:33:36.741Z,96910.63
2022-12-28T20:36:03.387Z,96903.66
2022-12-28T20:38:29.937Z,96899.16
2022-12-28T20:40:57.333Z,96892.19
2022-12-28T20:43:23.633Z,96883.41
2022-12-28T20:45:54.194Z,96886.09
2022-12-28T20:48:21.021Z,96889.78
2022-12-28T20:50:47.393Z,96886.34
2022-12-28T20:53:13.836Z,96882.88
2022-12-28T20:55:40.215Z,96877.81
2022-12-28T20:58:06.504Z,96884.19
2022-12-28T21:00:32.860Z,96885.28
2022-12-28T21:02:59.231Z,96884.47
2022-12-28T21:05:25.540Z,96872.22
2022-12-28T21:07:51.829Z,96885.81
2022-12-28T21:10:18.077Z,96867.16
2022-12-28T21:12:44.361Z,96878.88
2022-12-28T21:15:10.648Z,96877.28
2022-12-28T21:17:36.977Z,96872.22
2022-12-28T21:20:03.272Z,96876.72
2022-12-28T21:22:29.564Z,96854.59
2022-12-28T21:24:56.364Z,96866.34
2022-12-28T21:27:23.007Z,96857.53
2022-12-28T21:29:49.410Z,96854.88
2022-12-28T21:32:15.725Z,96854.06
2022-12-28T21:34:42.038Z,96849.81
2022-12-28T21:37:08.404Z,96838.09
2022-12-28T21:39:34.747Z,96843.69
2022-12-28T21:42:01.006Z,96832.25
2022-12-28T21:44:27.359Z,96825.03
2022-12-28T21:46:53.610Z,96826.13
2022-12-28T21:49:19.869Z,96840.47
2022-12-28T21:51:46.244Z,96829.81
2022-12-28T21:54:12.818Z,96822.09
2022-12-28T21:56:39.229Z,96821.06
2022-12-28T21:59:05.513Z,96811.72
2022-12-28T22:01:31.861Z,96793.06
2022-12-28T22:03:58.278Z,96802.91
2022-12-28T22:06:24.584Z,96796.81
2022-12-28T22:08:51.065Z,96786.94
2022-12-28T22:11:17.538Z,96800.53
2022-12-28T22:13:43.790Z,96794.41
2022-12-28T22:16:10.204Z,96788.81
2022-12-28T22:19:01.023Z,96785.34
2022-12-28T22:21:23.012Z,96780.81
2022-12-28T22:23:49.547Z,96796.81
2022-12-28T22:26:15.849Z,96793.34
2022-12-28T22:28:42.178Z,96792.25
2022-12-28T22:31:08.529Z,96793.06
2022-12-28T22:33:34.930Z,96793.88
2022-12-28T22:36:01.278Z,96783.22
2022-12-28T22:38:27.575Z,96783.22
2022-12-28T22:40:54.117Z,96780.28
2022-12-28T22:43:20.566Z,96774.97
2022-12-28T22:45:47.058Z,96784.53
2022-12-28T22:48:13.389Z,96790.94
2022-12-28T22:50:43.271Z,96783.75
2022-12-28T22:53:09.703Z,96775.78
2022-12-28T22:55:36.036Z,96768.81
2022-12-28T22:58:02.309Z,96768.81
2022-12-28T23:00:28.620Z,96768.81
2022-12-28T23:02:55.038Z,96758.97
2022-12-28T23:05:21.391Z,96759.78
2022-12-28T23:07:47.663Z,96748.31
2022-12-28T23:10:13.974Z,96758.16
2022-12-28T23:12:40.304Z,96749.13
2022-12-28T23:15:06.605Z,96757.63
2022-12-28T23:17:33.054Z,96749.09
2022-12-28T23:19:59.671Z,96740.34
2022-12-28T23:22:26.003Z,96733.09
2022-12-28T23:24:52.441Z,96728.56
2022-12-28T23:27:18.824Z,96729.34
2022-12-28T23:29:45.280Z,96728.81
2022-12-28T23:32:14.787Z,96719.47
2022-12-28T23:34:41.129Z,96727.72
2022-12-28T23:37:07.438Z,96727.16
2022-12-28T23:39:34.031Z,96728.22
2022-12-28T23:42:00.474Z,96704.25
2022-12-28T23:44:26.777Z,96698.38
2022-12-28T23:46:58.680Z,96710.59
2022-12-28T23:49:25.744Z,96723.91
2022-12-28T23:51:52.026Z,96718.56
2022-12-28T23:54:18.393Z,96699.91
2022-12-28T23:56:44.675Z,96725.44
2022-12-28T23:59:10.966Z,96709.16
